Time;durP1;ratioP1;P1;durP2;ratioP2;P2;SDS_P1;SDS_P2;PMS_P1;PMS_P2;Temp;Humidity;BMP_temperature;BMP_pressure;BME280_temperature;BME280_humidity;BME280_pressure;Samples;Min_cycle;Max_cycle;Signal;HPM_P1;HPM_P2
2022/01/16 00:00:40;;;;;;;52.58;27.73;;;3.20;99.90;;;;;;4771855;30;20055;-84
2022/01/16 00:05:51;;;;;;;44.42;24.48;;;3.20;99.90;;;;;;4787910;29;20082;-83
2022/01/16 00:08:16;;;;;;;48.58;27.13;;;3.10;99.90;;;;;;4787013;30;20043;-84
2022/01/16 00:10:42;;;;;;;51.72;28.00;;;3.10;99.90;;;;;;4786399;30;20047;-84
2022/01/16 00:13:08;;;;;;;49.63;26.35;;;3.20;99.90;;;;;;4786733;30;20047;-83
2022/01/16 00:15:33;;;;;;;45.83;25.58;;;3.10;99.90;;;;;;4786976;30;20043;-84
2022/01/16 00:20:31;;;;;;;48.70;27.17;;;3.10;99.90;;;;;;4787060;30;20140;-84
2022/01/16 00:22:57;;;;;;;58.95;29.45;;;3.00;99.90;;;;;;4756898;30;20048;-83
2022/01/16 00:25:23;;;;;;;50.63;27.42;;;3.10;99.90;;;;;;4786917;30;20043;-83
2022/01/16 00:27:49;;;;;;;72.18;36.60;;;3.00;99.90;;;;;;4771594;30;20119;-83
2022/01/16 00:30:15;;;;;;;58.90;29.15;;;3.00;99.90;;;;;;4786568;30;20130;-84
2022/01/16 00:32:41;;;;;;;60.00;30.17;;;3.00;99.90;;;;;;4786664;30;20059;-83
2022/01/16 00:35:07;;;;;;;60.83;30.70;;;3.00;99.90;;;;;;4756686;30;20062;-83
2022/01/16 00:37:32;;;;;;;61.42;32.13;;;3.00;99.90;;;;;;4786735;30;20062;-83
2022/01/16 00:39:58;;;;;;;69.05;33.13;;;2.90;99.90;;;;;;4770590;30;20059;-84
2022/01/16 00:42:24;;;;;;;64.97;35.05;;;2.90;99.90;;;;;;4786481;30;20411;-83
2022/01/16 00:44:49;;;;;;;63.42;31.63;;;3.00;99.90;;;;;;4756602;30;20053;-83
2022/01/16 00:47:16;;;;;;;65.93;32.85;;;3.00;99.90;;;;;;4786616;30;20163;-83
2022/01/16 00:49:41;;;;;;;65.10;32.50;;;2.90;99.90;;;;;;4771653;30;20119;-83
2022/01/16 00:52:08;;;;;;;70.38;34.03;;;3.00;99.90;;;;;;4786171;30;20075;-83
2022/01/16 00:54:34;;;;;;;66.40;33.25;;;2.90;99.90;;;;;;4771288;30;20510;-83
2022/01/16 00:56:59;;;;;;;70.95;35.33;;;2.90;99.90;;;;;;4771313;30;20130;-83
2022/01/16 00:59:25;;;;;;;73.75;36.70;;;2.90;99.90;;;;;;4770863;30;20055;-83
2022/01/16 01:01:50;;;;;;;69.43;33.60;;;2.90;99.90;;;;;;4756391;30;20614;-85
2022/01/16 01:04:16;;;;;;;70.40;35.53;;;2.90;99.90;;;;;;4770814;30;20061;-83
2022/01/16 01:06:41;;;;;;;61.85;32.15;;;2.90;99.90;;;;;;4785334;30;20122;-84
2022/01/16 01:09:07;;;;;;;87.50;42.85;;;3.00;99.90;;;;;;4785619;30;20098;-83
2022/01/16 01:11:33;;;;;;;65.53;31.50;;;2.90;99.90;;;;;;4756692;30;20063;-84
2022/01/16 01:16:38;;;;;;;68.50;32.63;;;2.90;99.90;;;;;;4757332;30;20158;-84
2022/01/16 01:19:04;;;;;;;76.28;37.65;;;2.90;99.90;;;;;;4772380;30;20066;-84
2022/01/16 01:21:30;;;;;;;71.75;34.67;;;2.90;99.90;;;;;;4756774;30;20060;-83
2022/01/16 01:23:57;;;;;;;73.43;35.03;;;2.90;99.90;;;;;;4771132;30;20058;-84
2022/01/16 01:26:27;;;;;;;79.22;37.20;;;2.90;99.90;;;;;;4771267;30;20056;-83
2022/01/16 01:28:53;;;;;;;70.30;34.78;;;2.90;99.90;;;;;;4771597;30;20062;-84
2022/01/16 01:31:18;;;;;;;73.57;37.03;;;2.90;99.90;;;;;;4786122;30;20404;-84
2022/01/16 01:33:44;;;;;;;84.25;38.55;;;2.90;99.90;;;;;;4786062;30;20055;-84
2022/01/16 01:36:10;;;;;;;68.43;34.03;;;2.90;99.90;;;;;;4755874;30;20062;-84
2022/01/16 01:38:35;;;;;;;68.82;32.63;;;3.00;99.90;;;;;;4786171;30;20510;-84
2022/01/16 01:41:01;;;;;;;75.65;35.17;;;2.90;99.90;;;;;;4785069;30;20534;-84
2022/01/16 01:51:25;;;;;;;68.80;32.80;;;2.90;99.90;;;;;;4786040;30;20063;-84
2022/01/16 01:53:51;;;;;;;71.43;32.95;;;2.90;99.90;;;;;;4756496;30;20051;-84
2022/01/16 01:56:18;;;;;;;72.65;32.90;;;2.90;99.90;;;;;;4756141;30;20047;-84
2022/01/16 01:58:44;;;;;;;81.55;34.58;;;2.90;99.90;;;;;;4756443;30;20117;-84
2022/01/16 02:01:09;;;;;;;87.47;34.40;;;2.90;99.90;;;;;;4755687;30;20055;-84
2022/01/16 02:06:13;;;;;;;82.50;34.38;;;2.80;99.90;;;;;;4785650;30;20514;-84
2022/01/16 02:08:39;;;;;;;77.85;35.92;;;2.90;99.90;;;;;;4770551;30;20108;-84
2022/01/16 02:11:04;;;;;;;97.55;41.72;;;2.90;99.90;;;;;;4757350;30;20063;-84
2022/01/16 02:13:34;;;;;;;84.18;34.30;;;2.90;99.90;;;;;;4773256;30;20097;-84
2022/01/16 02:29:57;;;;;;;78.28;32.65;;;2.90;99.90;;;;;;4788572;30;20059;-83
2022/01/16 02:32:47;;;;;;;75.38;32.97;;;3.00;99.90;;;;;;4775838;30;20091;-84
2022/01/16 02:34:55;;;;;;;71.38;31.60;;;3.00;99.90;;;;;;4775794;30;20055;-84
2022/01/16 02:37:23;;;;;;;75.68;33.50;;;3.00;99.90;;;;;;4788132;30;20055;-84
2022/01/16 02:39:51;;;;;;;67.57;30.48;;;2.90;99.90;;;;;;4759013;30;20071;-84
2022/01/16 02:42:18;;;;;;;69.60;32.13;;;3.00;99.90;;;;;;4773750;30;20059;-84
2022/01/16 02:44:49;;;;;;;74.35;33.70;;;3.00;99.90;;;;;;4759037;30;20063;-84
2022/01/16 02:47:18;;;;;;;79.70;33.45;;;3.10;99.90;;;;;;4759079;30;20098;-84
2022/01/16 02:49:47;;;;;;;79.57;33.97;;;3.00;99.90;;;;;;4773471;30;20051;-83
2022/01/16 02:52:14;;;;;;;73.25;33.92;;;3.00;99.90;;;;;;4773352;30;20055;-84
2022/01/16 02:54:41;;;;;;;78.50;33.40;;;3.10;99.90;;;;;;4758793;30;20063;-84
2022/01/16 02:57:08;;;;;;;78.18;33.80;;;3.00;99.90;;;;;;4773260;30;20078;-84
2022/01/16 02:59:34;;;;;;;75.80;35.03;;;3.00;99.90;;;;;;4758899;30;20407;-84
2022/01/16 03:02:03;;;;;;;78.13;34.22;;;3.10;99.90;;;;;;4758623;30;20055;-83
2022/01/16 03:04:29;;;;;;;81.18;35.15;;;3.10;99.90;;;;;;4773596;30;20059;-83
2022/01/16 03:06:55;;;;;;;80.93;34.70;;;3.10;99.90;;;;;;4758460;30;20051;-84
2022/01/16 03:09:22;;;;;;;81.03;36.00;;;3.00;99.90;;;;;;4787179;30;20560;-84
2022/01/16 03:11:49;;;;;;;77.15;33.75;;;3.10;99.90;;;;;;4758473;30;20063;-84
2022/01/16 03:14:17;;;;;;;82.80;35.80;;;3.10;99.90;;;;;;4788665;29;20080;-84
2022/01/16 03:16:46;;;;;;;81.43;34.72;;;3.10;99.90;;;;;;4758097;30;20134;-84
2022/01/16 03:21:57;;;;;;;79.97;33.83;;;3.10;99.90;;;;;;4786751;29;20061;-84
2022/01/16 03:24:40;;;;;;;90.47;35.72;;;3.20;99.90;;;;;;4756575;30;20055;-84
2022/01/16 03:27:11;;;;;;;79.03;33.70;;;3.20;99.90;;;;;;4772138;30;20067;-84
2022/01/16 03:29:37;;;;;;;86.45;35.75;;;3.20;99.90;;;;;;4786952;30;20058;-84
2022/01/16 03:32:04;;;;;;;81.38;34.55;;;3.10;99.90;;;;;;4772678;30;20055;-84
2022/01/16 03:34:29;;;;;;;86.13;35.58;;;3.20;99.90;;;;;;4772516;30;20402;-84
2022/01/16 03:36:55;;;;;;;86.97;34.22;;;3.20;99.90;;;;;;4772725;30;20051;-84
2022/01/16 03:39:21;;;;;;;81.85;33.75;;;3.20;99.90;;;;;;4787183;30;20067;-84
2022/01/16 03:41:46;;;;;;;87.18;35.35;;;3.10;99.90;;;;;;4785836;30;20067;-84
2022/01/16 03:44:12;;;;;;;86.32;35.95;;;3.20;99.90;;;;;;4756514;30;20097;-84
2022/01/16 03:46:42;;;;;;;84.50;35.40;;;3.20;99.90;;;;;;4786593;30;20058;-83
2022/01/16 03:49:13;;;;;;;89.60;36.17;;;3.20;99.90;;;;;;4757815;30;20057;-84
2022/01/16 03:51:39;;;;;;;87.57;35.20;;;3.30;99.90;;;;;;4787395;30;20089;-84
2022/01/16 03:54:05;;;;;;;83.65;34.55;;;3.30;99.90;;;;;;4787264;30;20495;-84
2022/01/16 03:56:31;;;;;;;94.32;35.22;;;3.30;99.90;;;;;;4771140;30;20175;-84
2022/01/16 03:58:56;;;;;;;89.28;36.10;;;3.20;99.90;;;;;;4788062;29;20138;-84
2022/01/16 04:01:24;;;;;;;93.03;36.03;;;3.20;99.90;;;;;;4785784;30;20059;-84
2022/01/16 04:03:50;;;;;;;104.82;36.97;;;3.30;99.90;;;;;;4756944;30;20063;-84
2022/01/16 04:06:16;;;;;;;93.30;37.35;;;3.30;99.90;;;;;;4770831;30;20130;-84
2022/01/16 04:08:42;;;;;;;98.13;37.42;;;3.30;99.90;;;;;;4771232;30;20055;-84
2022/01/16 04:11:08;;;;;;;91.28;36.45;;;3.30;99.90;;;;;;4786730;30;20047;-84
2022/01/16 04:13:34;;;;;;;101.63;36.65;;;3.40;99.90;;;;;;4771700;30;20066;-84
2022/01/16 04:15:59;;;;;;;105.13;36.90;;;3.40;99.90;;;;;;4756518;30;20059;-84
2022/01/16 04:18:25;;;;;;;98.05;37.20;;;3.30;99.90;;;;;;4770453;30;20399;-84
2022/01/16 04:20:51;;;;;;;101.28;38.78;;;3.40;99.90;;;;;;4785919;30;20055;-84
2022/01/16 04:23:16;;;;;;;97.85;36.20;;;3.40;99.90;;;;;;4770483;30;20056;-85
2022/01/16 04:25:42;;;;;;;96.13;36.90;;;3.40;99.90;;;;;;4770889;30;20055;-84
2022/01/16 04:28:08;;;;;;;98.47;35.03;;;3.40;99.90;;;;;;4756874;30;20051;-84
2022/01/16 04:30:33;;;;;;;93.22;36.95;;;3.50;99.90;;;;;;4771295;30;20047;-84
2022/01/16 04:32:59;;;;;;;92.30;36.78;;;3.50;99.90;;;;;;4785887;29;20063;-84
2022/01/16 04:35:25;;;;;;;92.20;37.40;;;3.50;99.90;;;;;;4770436;30;20054;-84
2022/01/16 04:37:51;;;;;;;106.57;37.40;;;3.40;99.90;;;;;;4756040;30;20502;-84
2022/01/16 04:40:16;;;;;;;91.30;35.90;;;3.60;99.90;;;;;;4755473;30;20059;-86
2022/01/16 04:45:27;;;;;;;103.05;36.13;;;3.50;99.90;;;;;;4786229;30;20055;-84
2022/01/16 04:47:53;;;;;;;103.00;36.53;;;3.50;99.90;;;;;;4771911;30;20051;-84
2022/01/16 04:50:21;;;;;;;93.00;37.20;;;3.60;99.90;;;;;;4769942;30;20089;-86
2022/01/16 04:52:46;;;;;;;103.65;36.72;;;3.60;99.90;;;;;;4741640;30;20406;-84
2022/01/16 04:55:12;;;;;;;109.70;38.08;;;3.50;99.90;;;;;;4786075;30;20055;-84
2022/01/16 04:57:38;;;;;;;102.15;38.50;;;3.50;99.90;;;;;;4786142;30;20055;-84
2022/01/16 05:00:10;;;;;;;105.47;36.40;;;3.60;99.90;;;;;;4756475;30;20057;-84
2022/01/16 05:02:35;;;;;;;106.97;36.83;;;3.60;99.90;;;;;;4771407;30;20502;-84
2022/01/16 05:05:01;;;;;;;110.63;36.60;;;3.70;99.90;;;;;;4756531;30;20151;-84
2022/01/16 05:07:27;;;;;;;109.50;38.15;;;3.60;99.90;;;;;;4771248;30;20055;-84
2022/01/16 05:09:52;;;;;;;123.65;37.80;;;3.70;99.90;;;;;;4786316;30;20498;-84
2022/01/16 05:12:27;;;;;;;106.38;38.10;;;3.70;99.90;;;;;;4786407;30;20057;-84
2022/01/16 05:17:36;;;;;;;106.75;37.00;;;3.70;99.90;;;;;;4773362;30;20060;-84
2022/01/16 05:20:03;;;;;;;100.45;37.28;;;3.70;99.90;;;;;;4770958;30;20047;-84
2022/01/16 05:22:29;;;;;;;126.43;38.80;;;3.70;99.90;;;;;;4756365;30;20138;-84
2022/01/16 05:24:55;;;;;;;103.40;37.45;;;3.70;99.90;;;;;;4756741;30;20161;-84
2022/01/16 05:27:20;;;;;;;108.88;38.65;;;3.80;99.90;;;;;;4771382;30;20504;-84
2022/01/16 05:29:46;;;;;;;102.82;38.80;;;3.70;99.90;;;;;;4770643;30;20054;-84
2022/01/16 05:32:15;;;;;;;110.10;38.92;;;3.80;99.90;;;;;;4771395;30;20058;-84
2022/01/16 05:34:41;;;;;;;116.55;37.88;;;3.90;99.90;;;;;;4785749;30;20055;-84
2022/01/16 05:37:07;;;;;;;111.88;38.22;;;3.80;99.90;;;;;;4756546;30;20487;-84
2022/01/16 05:39:34;;;;;;;104.05;37.90;;;3.80;99.90;;;;;;4755918;30;20506;-85
2022/01/16 05:42:00;;;;;;;113.32;38.20;;;3.80;99.90;;;;;;4771493;30;20388;-84
2022/01/16 05:44:26;;;;;;;112.55;39.83;;;3.80;99.90;;;;;;4741646;30;20062;-86
2022/01/16 05:46:51;;;;;;;114.72;38.97;;;3.90;99.90;;;;;;4789466;30;20062;-84
2022/01/16 05:49:17;;;;;;;118.78;40.45;;;3.90;99.90;;;;;;4789219;30;20066;-84
2022/01/16 05:51:42;;;;;;;118.35;40.85;;;3.90;99.90;;;;;;4790165;30;20051;-84
2022/01/16 05:54:08;;;;;;;104.10;40.45;;;3.90;99.90;;;;;;4789033;30;20055;-84
2022/01/16 05:56:34;;;;;;;152.80;42.55;;;3.90;99.90;;;;;;4788403;30;20056;-84
2022/01/16 05:58:59;;;;;;;115.90;40.83;;;3.90;99.90;;;;;;4774362;30;20054;-84
2022/01/16 06:01:25;;;;;;;112.65;39.83;;;4.00;99.90;;;;;;4788995;30;20108;-84
2022/01/16 06:03:51;;;;;;;150.80;40.80;;;3.90;99.90;;;;;;4788347;30;20055;-85
2022/01/16 06:06:16;;;;;;;110.63;39.88;;;3.90;99.90;;;;;;4788836;30;20047;-85
2022/01/16 06:08:43;;;;;;;121.57;40.92;;;3.90;99.90;;;;;;4773651;30;20055;-84
2022/01/16 06:11:08;;;;;;;109.72;39.97;;;3.90;99.90;;;;;;4789099;30;20065;-84
2022/01/16 06:13:34;;;;;;;131.43;39.95;;;4.00;99.90;;;;;;4788452;30;20129;-86
2022/01/16 06:16:02;;;;;;;110.28;39.58;;;4.00;99.90;;;;;;4774219;30;20095;-84
2022/01/16 06:18:27;;;;;;;121.57;41.85;;;4.10;99.90;;;;;;4774153;30;20146;-83
2022/01/16 06:20:53;;;;;;;104.93;39.47;;;4.20;99.90;;;;;;4759076;30;20134;-83
2022/01/16 06:23:19;;;;;;;122.65;41.78;;;4.20;99.90;;;;;;4774138;30;20105;-83
2022/01/16 06:25:44;;;;;;;112.88;39.65;;;4.20;99.90;;;;;;4773701;30;20112;-83
2022/01/16 06:28:10;;;;;;;108.88;41.15;;;4.10;99.90;;;;;;4773800;30;20055;-84
2022/01/16 06:30:36;;;;;;;106.05;40.72;;;4.20;99.90;;;;;;4788162;30;20048;-83
2022/01/16 06:33:05;;;;;;;122.35;41.33;;;4.10;99.90;;;;;;4774006;30;20059;-84
2022/01/16 06:35:31;;;;;;;116.75;42.03;;;4.20;99.90;;;;;;4759854;30;20075;-83
2022/01/16 06:37:56;;;;;;;105.97;39.90;;;4.20;99.90;;;;;;4773663;30;20426;-83
2022/01/16 06:40:22;;;;;;;114.20;42.20;;;4.30;99.90;;;;;;4788178;30;20074;-83
2022/01/16 06:42:48;;;;;;;117.00;43.50;;;4.40;99.90;;;;;;4788282;30;20062;-83
2022/01/16 06:45:13;;;;;;;107.35;42.10;;;4.40;99.90;;;;;;4788743;30;20081;-83
2022/01/16 06:47:39;;;;;;;103.35;41.47;;;4.40;99.90;;;;;;4788377;30;20100;-83
2022/01/16 06:50:05;;;;;;;112.03;43.58;;;4.40;99.90;;;;;;4758682;30;20115;-83
2022/01/16 06:52:31;;;;;;;107.55;43.03;;;4.50;99.90;;;;;;4788498;30;20066;-83
2022/01/16 06:54:56;;;;;;;113.28;40.70;;;4.50;99.90;;;;;;4788244;30;20048;-83
2022/01/16 06:57:22;;;;;;;100.32;40.10;;;4.60;99.90;;;;;;4773674;30;20486;-83
2022/01/16 06:59:48;;;;;;;105.57;41.85;;;4.60;99.90;;;;;;4787427;30;20087;-83
2022/01/16 07:02:16;;;;;;;101.95;41.28;;;4.60;99.90;;;;;;4788214;30;20051;-84
2022/01/16 07:04:43;;;;;;;101.13;41.60;;;4.60;99.90;;;;;;4773395;30;20066;-83
2022/01/16 07:07:09;;;;;;;107.00;41.75;;;4.70;99.90;;;;;;4788594;30;20058;-84
2022/01/16 07:09:35;;;;;;;110.95;42.40;;;4.60;99.90;;;;;;4788169;30;20051;-84
2022/01/16 07:12:00;;;;;;;112.43;42.70;;;4.70;99.90;;;;;;4773153;30;20066;-84
2022/01/16 07:14:26;;;;;;;108.05;42.72;;;4.80;99.90;;;;;;4788191;30;20050;-84
2022/01/16 07:16:52;;;;;;;102.68;42.08;;;4.70;99.90;;;;;;4772604;30;20173;-82
2022/01/16 07:19:17;;;;;;;102.60;41.60;;;4.70;99.90;;;;;;4789086;29;20135;-83
2022/01/16 07:21:43;;;;;;;101.13;41.20;;;4.80;99.90;;;;;;4789030;30;20090;-83
2022/01/16 07:24:15;;;;;;;94.22;41.13;;;4.80;99.90;;;;;;4787782;30;20407;-82
2022/01/16 07:26:44;;;;;;;103.55;41.15;;;4.90;99.90;;;;;;4772771;30;20117;-86
2022/01/16 07:29:09;;;;;;;95.40;40.33;;;4.90;99.90;;;;;;4788932;29;20058;-86
2022/01/16 07:31:38;;;;;;;99.25;40.85;;;5.00;99.90;;;;;;4787671;30;20047;-84
2022/01/16 07:34:05;;;;;;;96.97;40.92;;;5.00;99.90;;;;;;4787403;30;20059;-83
2022/01/16 07:36:30;;;;;;;104.32;41.63;;;5.00;99.90;;;;;;4772806;30;20138;-83
2022/01/16 07:38:56;;;;;;;97.07;42.08;;;5.00;99.90;;;;;;4772475;30;20184;-84
2022/01/16 07:41:22;;;;;;;91.57;40.42;;;5.00;99.90;;;;;;4788686;29;20067;-83
2022/01/16 07:43:47;;;;;;;95.95;41.15;;;5.10;99.90;;;;;;4757305;30;20063;-83
2022/01/16 07:46:13;;;;;;;91.75;40.80;;;5.10;99.90;;;;;;4787393;30;20134;-83
2022/01/16 07:48:39;;;;;;;95.40;41.15;;;5.10;99.90;;;;;;4787793;30;20083;-82
2022/01/16 07:51:04;;;;;;;93.07;40.92;;;5.10;99.90;;;;;;4786930;29;20573;-83
2022/01/16 07:53:30;;;;;;;85.55;38.67;;;5.10;99.90;;;;;;4787532;30;20103;-83
2022/01/16 07:55:55;;;;;;;85.60;39.63;;;5.10;99.90;;;;;;4772002;30;20082;-83
2022/01/16 07:58:21;;;;;;;92.68;39.95;;;5.20;99.90;;;;;;4772378;30;20083;-83
2022/01/16 08:00:47;;;;;;;90.13;40.40;;;5.20;99.90;;;;;;4787917;29;20094;-84
2022/01/16 08:03:12;;;;;;;82.95;38.53;;;5.20;99.90;;;;;;4772434;30;20527;-85
2022/01/16 08:05:38;;;;;;;85.57;40.13;;;5.10;99.90;;;;;;4788175;29;20051;-84
2022/01/16 08:08:04;;;;;;;87.57;38.83;;;5.20;99.90;;;;;;4786464;29;20103;-84
2022/01/16 08:10:30;;;;;;;87.63;38.25;;;5.20;99.90;;;;;;4757171;30;20095;-86
2022/01/16 08:12:55;;;;;;;80.85;39.35;;;5.20;99.90;;;;;;4786693;30;20142;-86
2022/01/16 08:15:21;;;;;;;82.60;39.05;;;5.20;99.90;;;;;;4757530;30;20064;-87
2022/01/16 08:17:47;;;;;;;74.90;37.53;;;5.20;99.90;;;;;;4786738;30;20063;-87
2022/01/16 08:20:12;;;;;;;83.80;37.88;;;5.20;99.90;;;;;;4771913;30;20046;-85
2022/01/16 08:22:38;;;;;;;83.00;39.08;;;5.30;99.90;;;;;;4788046;29;20468;-87
2022/01/16 08:25:04;;;;;;;77.38;38.13;;;5.30;99.90;;;;;;4756873;30;20047;-86
2022/01/16 08:27:30;;;;;;;72.40;36.72;;;5.30;99.90;;;;;;4757322;30;20059;-86
2022/01/16 08:29:56;;;;;;;68.22;36.55;;;5.50;99.90;;;;;;4771522;30;20131;-86
2022/01/16 08:32:22;;;;;;;74.65;36.03;;;5.40;99.90;;;;;;4786723;30;20125;-86
2022/01/16 08:34:47;;;;;;;77.45;36.05;;;5.50;99.90;;;;;;4772031;30;20491;-88
2022/01/16 08:37:13;;;;;;;66.43;34.97;;;5.50;99.90;;;;;;4770954;30;20062;-86
2022/01/16 08:39:39;;;;;;;74.20;34.58;;;5.50;99.90;;;;;;4787574;29;20108;-84
2022/01/16 08:42:05;;;;;;;65.28;34.33;;;5.60;99.90;;;;;;4787010;29;20055;-85
2022/01/16 08:44:32;;;;;;;62.13;33.70;;;5.60;99.90;;;;;;4757022;30;20418;-86
2022/01/16 08:46:57;;;;;;;71.20;34.35;;;5.60;99.90;;;;;;4771364;30;20391;-87
2022/01/16 08:49:23;;;;;;;60.17;33.10;;;5.60;99.90;;;;;;4771618;30;20050;-87
2022/01/16 08:51:49;;;;;;;56.85;32.22;;;5.70;99.90;;;;;;4741888;30;20454;-87
2022/01/16 08:54:14;;;;;;;58.38;32.45;;;5.70;99.90;;;;;;4771266;30;20047;-87
2022/01/16 08:56:40;;;;;;;61.38;32.33;;;5.90;99.90;;;;;;4771670;30;20146;-86
2022/01/16 08:59:06;;;;;;;59.53;32.53;;;5.80;99.90;;;;;;4771353;30;20402;-85
2022/01/16 09:01:32;;;;;;;51.13;30.50;;;5.80;99.90;;;;;;4786287;30;20047;-86
2022/01/16 09:03:57;;;;;;;54.15;31.05;;;5.90;99.90;;;;;;4786878;29;20101;-86
2022/01/16 09:06:23;;;;;;;54.88;30.75;;;6.00;99.90;;;;;;4771535;30;20063;-87
2022/01/16 09:08:49;;;;;;;55.65;31.35;;;5.90;99.90;;;;;;4771535;30;20091;-86
2022/01/16 09:11:14;;;;;;;51.35;30.45;;;6.00;99.90;;;;;;4755816;30;20452;-89
2022/01/16 09:13:41;;;;;;;52.22;30.45;;;6.00;99.90;;;;;;4786381;30;20092;-87
2022/01/16 09:16:07;;;;;;;50.13;30.52;;;6.10;99.90;;;;;;4786020;29;20096;-86
2022/01/16 09:18:33;;;;;;;47.03;29.38;;;6.20;99.90;;;;;;4771505;29;20392;-88
2022/01/16 09:21:00;;;;;;;45.05;29.02;;;6.10;99.90;;;;;;4759211;30;20066;-87
2022/01/16 09:23:26;;;;;;;48.03;28.60;;;6.20;99.90;;;;;;4760759;30;20142;-86
2022/01/16 09:25:52;;;;;;;47.05;28.48;;;6.20;99.90;;;;;;4774763;30;20528;-85
2022/01/16 09:28:17;;;;;;;42.13;27.83;;;6.20;99.90;;;;;;4774315;30;20051;-85
2022/01/16 09:30:43;;;;;;;47.90;27.92;;;6.30;99.90;;;;;;4789558;30;20130;-85
2022/01/16 09:33:09;;;;;;;42.05;26.98;;;6.30;99.90;;;;;;4789205;30;20056;-86
2022/01/16 09:35:35;;;;;;;42.22;26.70;;;6.30;99.90;;;;;;4774655;30;20452;-87
2022/01/16 09:38:01;;;;;;;40.10;25.90;;;6.30;99.90;;;;;;4759697;30;20039;-88
2022/01/16 09:40:27;;;;;;;42.95;25.88;;;6.40;99.90;;;;;;4774520;30;20059;-87
2022/01/16 09:42:52;;;;;;;38.42;25.45;;;6.40;99.90;;;;;;4760014;30;20055;-85
2022/01/16 09:45:18;;;;;;;42.05;25.33;;;6.50;99.90;;;;;;4774240;30;20054;-86
2022/01/16 09:47:45;;;;;;;36.33;23.48;;;6.50;99.90;;;;;;4759897;30;20069;-86
2022/01/16 09:50:11;;;;;;;37.38;23.05;;;6.50;99.90;;;;;;4774060;30;20414;-86
2022/01/16 09:52:41;;;;;;;35.58;22.55;;;6.50;99.90;;;;;;4759836;30;20057;-86
2022/01/16 09:55:07;;;;;;;33.92;21.67;;;6.60;99.90;;;;;;4774256;30;20138;-85
2022/01/16 09:57:33;;;;;;;33.50;21.42;;;6.60;99.90;;;;;;4774502;30;20124;-86
2022/01/16 09:59:59;;;;;;;37.65;22.80;;;6.70;99.90;;;;;;4774629;30;20494;-85
2022/01/16 10:02:25;;;;;;;38.10;22.42;;;6.70;99.90;;;;;;4773983;30;20051;-85
2022/01/16 10:04:50;;;;;;;32.33;21.88;;;6.80;99.90;;;;;;4774391;30;20395;-86
2022/01/16 10:07:18;;;;;;;39.03;21.85;;;6.80;99.90;;;;;;4773861;30;20055;-85
2022/01/16 10:10:09;;;;;;;33.35;21.00;;;6.80;99.90;;;;;;4774202;30;20076;-86
2022/01/16 10:12:40;;;;;;;34.83;21.15;;;6.80;99.90;;;;;;4774284;30;20085;-86
2022/01/16 10:15:16;;;;;;;32.38;20.98;;;6.80;99.90;;;;;;4760117;30;20059;-87
2022/01/16 10:17:46;;;;;;;33.38;21.25;;;6.80;99.90;;;;;;4774171;30;20051;-86
2022/01/16 10:20:12;;;;;;;28.98;20.15;;;6.90;99.90;;;;;;4758865;30;20059;-89
2022/01/16 10:22:43;;;;;;;29.85;20.92;;;6.90;99.90;;;;;;4759274;30;20058;-89
2022/01/16 10:25:09;;;;;;;35.15;21.65;;;6.90;99.90;;;;;;4758277;30;20055;-89
2022/01/16 10:27:36;;;;;;;35.47;20.20;;;6.90;99.90;;;;;;4744571;30;20138;-90
2022/01/16 10:30:07;;;;;;;29.42;18.90;;;7.00;99.90;;;;;;4773656;29;20055;-87
2022/01/16 10:32:33;;;;;;;;;;;7.00;99.90;;;;;;4789167;30;20077;-85
2022/01/16 10:35:15;;;;;;;27.95;18.25;;;7.00;99.90;;;;;;4788576;30;20020;-85
2022/01/16 10:37:42;;;;;;;28.25;17.20;;;7.00;99.90;;;;;;4773933;30;20059;-85
2022/01/16 10:40:15;;;;;;;24.15;16.00;;;7.00;99.90;;;;;;4773101;30;20059;-87
2022/01/16 10:42:41;;;;;;;28.83;16.38;;;7.00;99.90;;;;;;4744760;30;20410;-84
2022/01/16 10:45:12;;;;;;;27.63;16.58;;;7.10;99.90;;;;;;4773676;30;20051;-88
2022/01/16 10:47:51;;;;;;;24.65;15.77;;;7.10;99.90;;;;;;4758791;30;20066;-86
2022/01/16 10:50:18;;;;;;;26.92;15.68;;;7.10;99.90;;;;;;4773895;30;20494;-85
2022/01/16 10:53:01;;;;;;;24.73;14.52;;;7.10;99.90;;;;;;4759059;30;20453;-86
2022/01/16 10:55:41;;;;;;;25.38;14.73;;;7.10;99.90;;;;;;4759572;30;20079;-86
2022/01/16 10:58:12;;;;;;;23.52;14.32;;;7.10;99.90;;;;;;4788564;30;20052;-87
2022/01/16 11:00:39;;;;;;;23.02;14.15;;;7.10;99.90;;;;;;4759100;30;20082;-86
2022/01/16 11:03:05;;;;;;;24.52;13.73;;;7.10;99.90;;;;;;4773669;30;20138;-86
2022/01/16 11:05:36;;;;;;;25.98;13.85;;;7.10;99.90;;;;;;4758184;30;20051;-87
2022/01/16 11:08:06;;;;;;;25.35;12.95;;;7.10;99.90;;;;;;4744969;30;20384;-87
2022/01/16 11:10:37;;;;;;;23.48;12.93;;;7.10;99.90;;;;;;4757976;30;20051;-85
2022/01/16 11:13:10;;;;;;;21.95;12.52;;;7.10;99.90;;;;;;4773072;30;20051;-86
2022/01/16 11:15:36;;;;;;;20.60;12.25;;;7.20;99.90;;;;;;4758450;30;20134;-83
2022/01/16 11:18:03;;;;;;;32.75;12.27;;;7.10;99.90;;;;;;4788015;30;20098;-84
2022/01/16 11:20:33;;;;;;;21.80;11.52;;;7.20;99.90;;;;;;4772658;30;20055;-83
2022/01/16 11:23:11;;;;;;;20.70;11.93;;;7.10;99.90;;;;;;4759016;30;20063;-84
2022/01/16 11:25:38;;;;;;;24.88;12.02;;;7.10;99.90;;;;;;4773913;30;20116;-85
2022/01/16 11:28:11;;;;;;;24.70;11.30;;;7.10;99.90;;;;;;4787881;30;20059;-85
2022/01/16 11:30:40;;;;;;;21.08;10.90;;;7.20;99.90;;;;;;4787298;30;20056;-85
2022/01/16 11:33:06;;;;;;;20.38;10.13;;;7.10;99.90;;;;;;4758338;30;20055;-93
2022/01/16 11:35:33;;;;;;;17.17;10.23;;;7.10;99.90;;;;;;4757561;30;20058;-86
2022/01/16 11:37:58;;;;;;;25.45;10.75;;;7.10;99.90;;;;;;4772861;30;20047;-85
2022/01/16 11:40:31;;;;;;;21.23;10.00;;;7.20;99.90;;;;;;4757247;30;20075;-85
2022/01/16 11:43:16;;;;;;;21.48;9.90;;;7.20;99.90;;;;;;4787892;29;20519;-85
2022/01/16 11:45:51;;;;;;;20.17;9.25;;;7.20;99.90;;;;;;4788661;29;20051;-85
2022/01/16 11:48:33;;;;;;;19.17;9.25;;;7.20;99.90;;;;;;4772626;30;20098;-90
2022/01/16 11:50:59;;;;;;;25.05;9.52;;;7.20;99.90;;;;;;4771984;30;20130;-87
2022/01/16 11:54:16;;;;;;;18.65;9.23;;;7.20;99.90;;;;;;4742500;30;20134;-87
2022/01/16 11:56:42;;;;;;;19.40;8.55;;;7.30;99.90;;;;;;4780859;30;20167;-86
2022/01/16 11:59:25;;;;;;;21.90;8.93;;;7.30;99.90;;;;;;4787318;30;20101;-85
2022/01/16 12:01:53;;;;;;;20.90;8.15;;;7.30;99.90;;;;;;4787519;30;20159;-86
2022/01/16 12:04:28;;;;;;;23.40;8.90;;;7.30;99.90;;;;;;4772312;30;20047;-85
2022/01/16 12:06:54;;;;;;;19.40;8.90;;;7.30;99.90;;;;;;4787096;30;20164;-85
2022/01/16 12:12:14;;;;;;;23.05;8.75;;;7.40;99.90;;;;;;4786377;30;20104;-85
2022/01/16 12:14:55;;;;;;;20.38;8.60;;;7.40;99.90;;;;;;4786618;30;20068;-85
2022/01/16 12:17:31;;;;;;;20.90;8.70;;;7.40;99.90;;;;;;4786898;30;20148;-87
2022/01/16 12:20:15;;;;;;;23.48;8.93;;;7.40;99.90;;;;;;4772788;30;20063;-85
2022/01/16 12:22:59;;;;;;;17.98;8.57;;;7.50;99.90;;;;;;4759254;30;20051;-85
2022/01/16 12:26:00;;;;;;;19.00;8.65;;;7.50;99.90;;;;;;4771451;30;20047;-85
2022/01/16 12:28:27;;;;;;;20.23;8.52;;;7.50;99.90;;;;;;4770952;30;20070;-87
2022/01/16 12:30:55;;;;;;;17.25;7.68;;;7.50;99.90;;;;;;4787669;29;20054;-87
2022/01/16 12:33:23;;;;;;;22.05;8.30;;;7.50;99.90;;;;;;4786635;30;20521;-85
2022/01/16 12:35:51;;;;;;;20.05;8.30;;;7.50;99.90;;;;;;4756934;30;20055;-84
2022/01/16 12:38:24;;;;;;;17.33;7.65;;;7.50;99.90;;;;;;4786875;30;20062;-85
2022/01/16 12:40:56;;;;;;;17.63;8.55;;;7.50;99.90;;;;;;4771487;30;20507;-84
2022/01/16 12:43:32;;;;;;;17.35;7.80;;;7.50;99.90;;;;;;4757381;30;20070;-86
2022/01/16 12:46:02;;;;;;;20.73;8.57;;;7.50;99.90;;;;;;4758522;30;20399;-86
2022/01/16 12:48:28;;;;;;;16.80;8.20;;;7.50;99.90;;;;;;4756608;30;20059;-84
2022/01/16 12:51:03;;;;;;;19.30;7.53;;;7.50;99.90;;;;;;4788060;30;20052;-93
2022/01/16 12:53:44;;;;;;;18.48;8.05;;;7.40;99.90;;;;;;4771133;30;20055;-82
2022/01/16 12:56:23;;;;;;;;;;;7.50;99.90;;;;;;4787339;30;20112;-84
2022/01/16 12:58:51;;;;;;;17.95;8.07;;;7.50;99.90;;;;;;4786201;30;19925;-83
2022/01/16 13:01:17;;;;;;;19.15;8.25;;;7.50;99.90;;;;;;4771748;30;20517;-84
2022/01/16 13:03:43;;;;;;;16.65;8.00;;;7.60;99.90;;;;;;4770997;30;20051;-85
2022/01/16 13:06:22;;;;;;;18.45;8.00;;;7.50;99.90;;;;;;4756652;30;20062;-83
2022/01/16 13:09:06;;;;;;;17.40;8.38;;;7.60;99.90;;;;;;4785764;30;20134;-83
2022/01/16 13:11:40;;;;;;;13.75;8.15;;;7.60;99.90;;;;;;4771421;30;20075;-84
2022/01/16 13:14:08;;;;;;;17.98;7.68;;;7.50;99.90;;;;;;4772056;30;20448;-83
2022/01/16 13:16:41;;;;;;;23.33;8.18;;;7.50;99.90;;;;;;4755861;30;20510;-83
2022/01/16 13:19:29;;;;;;;15.98;8.25;;;7.50;99.90;;;;;;4771598;30;20051;-83
2022/01/16 13:22:11;;;;;;;17.73;7.72;;;7.50;99.90;;;;;;4771255;30;20078;-83